Time;durP1;ratioP1;P1;durP2;ratioP2;P2;SDS_P1;SDS_P2;PMS_P1;PMS_P2;Temp;Humidity;BMP_temperature;BMP_pressure;BME280_temperature;BME280_humidity;BME280_pressure;Samples;Min_cycle;Max_cycle;Signal;HPM_P1;HPM_P2
2023/03/23 00:01:51;;;;;;;2.88;1.00;;;;;;;12.42;61.26;96639.56;5073214;28;20426;-62
2023/03/23 00:04:17;;;;;;;1.75;0.85;;;;;;;12.42;61.89;96633.34;5060093;28;20040;-60
2023/03/23 00:06:45;;;;;;;2.10;0.80;;;;;;;12.43;61.59;96640.41;5067027;28;20127;-60
2023/03/23 00:09:12;;;;;;;2.92;1.00;;;;;;;12.39;62.08;96632.00;5076195;28;20036;-60
2023/03/23 00:11:38;;;;;;;1.90;0.90;;;;;;;12.34;61.97;96643.72;5072078;28;20047;-60
2023/03/23 00:14:04;;;;;;;1.55;0.85;;;;;;;12.40;61.97;96643.66;5081750;28;20067;-59
2023/03/23 00:16:32;;;;;;;2.22;1.10;;;;;;;12.33;62.49;96641.28;5081207;28;20063;-60
2023/03/23 00:18:59;;;;;;;2.42;1.17;;;;;;;12.32;62.65;96643.16;5075731;28;20081;-59
2023/03/23 00:21:34;;;;;;;1.85;0.98;;;;;;;12.31;62.80;96644.25;5079094;28;20040;-60
2023/03/23 00:24:09;;;;;;;1.90;0.90;;;;;;;12.32;62.97;96642.38;5079208;28;20039;-61
2023/03/23 00:26:36;;;;;;;3.10;1.10;;;;;;;12.32;63.45;96645.09;5081093;28;20527;-60
2023/03/23 00:29:04;;;;;;;2.33;1.00;;;;;;;12.38;63.67;96635.00;5060213;28;20059;-60
2023/03/23 00:31:32;;;;;;;1.77;1.00;;;;;;;12.31;63.49;96629.91;5082010;28;20048;-59
2023/03/23 00:34:01;;;;;;;2.97;1.00;;;;;;;12.27;63.89;96623.41;5080704;28;20131;-58
2023/03/23 00:36:28;;;;;;;3.53;0.90;;;;;;;12.31;63.85;96619.84;5081533;28;20043;-60
2023/03/23 00:38:57;;;;;;;1.40;0.90;;;;;;;12.29;63.90;96623.91;5077072;28;20039;-60
2023/03/23 00:41:26;;;;;;;2.05;0.88;;;;;;;12.31;63.76;96619.84;5080075;28;20055;-58
2023/03/23 00:43:53;;;;;;;4.03;1.83;;;;;;;12.34;63.35;96605.69;5080287;28;20116;-60
2023/03/23 00:46:20;;;;;;;2.30;0.80;;;;;;;12.36;63.39;96614.34;5072942;28;20039;-57
2023/03/23 00:48:46;;;;;;;2.25;1.05;;;;;;;12.31;64.04;96606.25;5064385;28;20036;-60
2023/03/23 00:51:12;;;;;;;2.50;0.80;;;;;;;12.29;63.88;96600.31;5079330;28;20586;-60
2023/03/23 00:53:41;;;;;;;2.50;1.10;;;;;;;12.31;63.71;96603.53;5074898;28;20081;-61
2023/03/23 00:56:08;;;;;;;1.92;0.90;;;;;;;12.34;63.70;96600.28;5075708;28;20055;-59
2023/03/23 00:58:33;;;;;;;3.63;1.17;;;;;;;12.27;64.31;96604.41;5081416;28;20036;-60
2023/03/23 01:00:59;;;;;;;2.25;0.90;;;;;;;12.31;64.19;96603.53;5052387;28;20056;-61
2023/03/23 01:03:25;;;;;;;1.55;0.82;;;;;;;12.25;64.43;96603.88;5079440;28;20549;-60
2023/03/23 01:05:52;;;;;;;2.42;1.42;;;;;;;12.16;64.73;96609.88;5084965;28;20384;-60
2023/03/23 01:08:19;;;;;;;2.13;1.13;;;;;;;12.10;65.26;96605.59;5076661;28;20052;-60
2023/03/23 01:10:45;;;;;;;4.00;1.33;;;;;;;12.06;65.15;96610.75;5078666;28;20041;-60
2023/03/23 01:13:11;;;;;;;2.00;1.20;;;;;;;12.06;65.17;96612.69;5044896;28;20044;-59
2023/03/23 01:15:36;;;;;;;1.63;1.05;;;;;;;12.10;64.96;96605.59;5073809;28;20048;-61
2023/03/23 01:18:03;;;;;;;2.63;1.15;;;;;;;11.98;65.42;96614.06;5075967;28;20063;-59
2023/03/23 01:20:31;;;;;;;1.92;1.00;;;;;;;11.88;66.25;96598.63;5075374;28;20462;-60
2023/03/23 01:23:00;;;;;;;3.38;1.27;;;;;;;11.81;66.80;96600.84;5073389;28;20492;-61
2023/03/23 01:25:28;;;;;;;2.83;1.13;;;;;;;11.77;67.08;96594.34;5062536;28;20472;-60
2023/03/23 01:27:54;;;;;;;2.67;1.25;;;;;;;11.69;68.25;96590.31;5076278;28;20036;-61
2023/03/23 01:30:19;;;;;;;1.98;0.93;;;;;;;11.62;68.65;96587.91;5050629;28;20529;-61
2023/03/23 01:32:45;;;;;;;3.75;1.20;;;;;;;11.61;68.26;96583.56;5053216;28;20606;-59
2023/03/23 01:35:12;;;;;;;3.25;1.30;;;;;;;11.59;67.26;96572.19;5060527;28;20044;-60
2023/03/23 01:37:38;;;;;;;3.55;1.77;;;;;;;11.57;67.77;96568.94;5060944;28;20415;-60
2023/03/23 01:40:04;;;;;;;6.07;1.35;;;;;;;11.66;67.04;96569.19;5061382;28;20044;-58
2023/03/23 01:42:33;;;;;;;2.72;1.35;;;;;;;11.63;67.05;96565.13;5052768;28;20515;-61
2023/03/23 01:45:28;;;;;;;5.22;1.30;;;;;;;11.61;67.19;96555.66;5061447;28;20127;-61
2023/03/23 01:48:00;;;;;;;2.97;1.10;;;;;;;11.68;66.31;96561.56;5058474;28;20028;-61
2023/03/23 01:50:29;;;;;;;3.63;1.17;;;;;;;11.74;66.74;96562.34;5055611;28;20043;-61
2023/03/23 01:52:58;;;;;;;3.42;1.17;;;;;;;11.70;66.85;96559.41;5046000;28;20037;-61
2023/03/23 01:55:26;;;;;;;2.88;1.20;;;;;;;11.69;66.31;96560.50;5052662;28;20036;-60
2023/03/23 01:57:53;;;;;;;3.95;1.27;;;;;;;11.66;66.48;96559.16;5057079;28;20384;-60
2023/03/23 02:00:19;;;;;;;3.92;1.20;;;;;;;11.60;66.72;96556.75;5057657;28;20067;-61
2023/03/23 02:02:50;;;;;;;3.42;1.20;;;;;;;11.51;67.38;96551.91;5053691;28;20040;-59
2023/03/23 02:05:31;;;;;;;3.80;1.20;;;;;;;11.49;67.33;96550.53;5056103;28;20051;-60
2023/03/23 02:08:02;;;;;;;2.08;1.10;;;;;;;11.58;66.69;96552.41;5054216;28;20028;-60
2023/03/23 02:10:31;;;;;;;3.30;1.65;;;;;;;11.71;66.18;96550.16;5058382;28;20045;-60
2023/03/23 02:13:00;;;;;;;3.33;1.42;;;;;;;11.72;66.38;96549.06;5048382;28;20048;-60
2023/03/23 02:15:40;;;;;;;2.33;1.15;;;;;;;11.70;66.57;96553.97;5070652;28;20041;-60
2023/03/23 02:18:48;;;;;;;1.83;1.20;;;;;;;11.80;66.05;96553.91;5064295;28;20048;-59
2023/03/23 02:21:32;;;;;;;3.13;1.38;;;;;;;11.67;66.59;96549.09;5026664;28;20040;-61
2023/03/23 02:24:39;;;;;;;2.92;1.42;;;;;;;11.62;66.72;96549.13;5061161;28;20048;-61
2023/03/23 02:27:16;;;;;;;3.60;1.20;;;;;;;11.51;66.73;96543.78;5075060;28;20055;-60
2023/03/23 02:29:48;;;;;;;2.35;1.23;;;;;;;11.49;66.71;96531.56;5058918;28;20040;-60
2023/03/23 02:32:52;;;;;;;3.55;1.55;;;;;;;11.41;67.15;96517.53;5055667;28;20085;-60
2023/03/23 02:35:28;;;;;;;2.63;0.95;;;;;;;11.35;67.39;96513.19;5064233;28;20110;-60
2023/03/23 02:38:00;;;;;;;3.70;1.30;;;;;;;11.39;66.96;96522.41;5065986;28;20039;-58
2023/03/23 02:40:39;;;;;;;2.20;1.23;;;;;;;11.40;66.91;96515.91;5078298;28;20487;-61
2023/03/23 02:43:09;;;;;;;2.63;1.10;;;;;;;11.35;67.13;96509.69;5052260;28;20040;-61
2023/03/23 02:45:37;;;;;;;4.20;1.30;;;;;;;11.34;67.32;96505.34;5068735;28;20041;-60
2023/03/23 02:48:05;;;;;;;2.50;1.02;;;;;;;11.35;67.20;96494.22;5080160;28;20051;-61
2023/03/23 02:50:32;;;;;;;2.85;1.42;;;;;;;11.36;67.22;96497.75;5074977;28;20373;-60
2023/03/23 02:52:59;;;;;;;2.22;1.00;;;;;;;11.47;66.54;96490.38;5076705;28;20049;-61
2023/03/23 02:55:29;;;;;;;2.75;0.93;;;;;;;11.51;66.35;96500.41;5060392;28;20037;-60
2023/03/23 02:57:56;;;;;;;5.13;1.50;;;;;;;11.62;66.15;96494.91;5063629;28;20036;-59
2023/03/23 03:00:22;;;;;;;3.85;1.67;;;;;;;11.70;65.65;96503.28;5060331;28;20101;-59
2023/03/23 03:02:54;;;;;;;2.45;1.00;;;;;;;11.70;65.84;96505.16;5059108;28;20670;-60
2023/03/23 03:06:04;;;;;;;2.58;1.10;;;;;;;11.79;65.49;96498.03;5072365;28;20079;-58
2023/03/23 03:08:42;;;;;;;3.17;1.10;;;;;;;11.74;65.69;96495.38;5042663;28;20139;-60
2023/03/23 03:11:11;;;;;;;3.28;1.10;;;;;;;11.70;66.08;96497.84;5060011;28;20581;-60
2023/03/23 03:13:53;;;;;;;2.40;1.45;;;;;;;11.57;66.79;96496.56;5058812;28;20052;-60
2023/03/23 03:16:47;;;;;;;3.53;1.43;;;;;;;11.47;67.25;96493.91;5071422;28;20474;-61
2023/03/23 03:19:32;;;;;;;3.05;1.15;;;;;;;11.48;67.39;96492.81;5072688;28;20036;-60
2023/03/23 03:21:59;;;;;;;3.70;1.52;;;;;;;11.49;67.41;96491.72;5059845;28;20180;-61
2023/03/23 03:24:38;;;;;;;2.75;1.33;;;;;;;11.54;67.44;96490.91;5055320;28;20040;-60
2023/03/23 03:27:09;;;;;;;2.38;1.20;;;;;;;11.52;67.13;96491.16;5073840;28;20076;-61
2023/03/23 03:29:51;;;;;;;2.85;1.42;;;;;;;11.49;67.09;96502.56;5053461;28;20035;-61
2023/03/23 03:32:22;;;;;;;3.22;1.30;;;;;;;11.46;67.62;96500.41;5064818;28;20040;-60
2023/03/23 03:34:50;;;;;;;3.28;1.40;;;;;;;11.51;67.68;96499.56;5055019;28;21258;-60
2023/03/23 03:37:18;;;;;;;2.95;1.20;;;;;;;11.44;67.97;96478.19;5051216;28;20078;-61
2023/03/23 03:39:46;;;;;;;3.42;1.30;;;;;;;11.51;67.94;96481.44;5054438;28;20032;-59
2023/03/23 03:42:11;;;;;;;2.58;1.40;;;;;;;11.49;68.04;96480.88;5046428;28;20040;-58
2023/03/23 03:44:37;;;;;;;3.38;1.27;;;;;;;11.52;67.91;96477.63;5061369;28;20179;-61
2023/03/23 03:47:03;;;;;;;2.75;1.30;;;;;;;11.64;67.47;96476.47;5079737;28;20449;-58
2023/03/23 03:49:29;;;;;;;3.22;1.50;;;;;;;11.68;67.33;96482.94;5063523;28;20209;-61
2023/03/23 03:51:55;;;;;;;2.88;1.25;;;;;;;11.84;66.69;96486.38;5061494;28;20038;-59
2023/03/23 03:54:32;;;;;;;3.55;1.40;;;;;;;11.92;66.54;96485.75;5058165;28;20043;-56
2023/03/23 03:56:58;;;;;;;4.07;1.30;;;;;;;11.82;66.95;96481.22;5062538;28;20044;-60
2023/03/23 03:59:41;;;;;;;4.40;1.42;;;;;;;11.88;66.60;96483.88;5071035;28;20043;-61
2023/03/23 04:02:27;;;;;;;2.45;1.17;;;;;;;11.84;67.15;96484.44;5067115;28;20044;-59
2023/03/23 04:04:53;;;;;;;3.00;1.42;;;;;;;11.77;67.40;96478.56;5055099;28;20036;-60
2023/03/23 04:07:21;;;;;;;2.63;1.35;;;;;;;11.76;67.44;96484.25;5078152;28;20031;-61
2023/03/23 04:09:47;;;;;;;3.45;1.40;;;;;;;11.78;67.29;96488.28;5076337;28;20096;-60
2023/03/23 04:12:15;;;;;;;3.42;1.27;;;;;;;11.99;65.74;96488.16;5056196;28;20069;-61
2023/03/23 04:14:56;;;;;;;3.30;1.30;;;;;;;11.99;65.98;96488.16;5077604;28;20509;-60
2023/03/23 04:17:26;;;;;;;3.58;1.55;;;;;;;12.06;65.89;96490.56;5055498;28;20056;-61
2023/03/23 04:19:59;;;;;;;2.42;1.10;;;;;;;12.14;65.38;96491.88;5057483;28;20069;-60
2023/03/23 04:22:32;;;;;;;3.08;1.23;;;;;;;11.99;65.86;96482.72;5051873;28;20064;-61
2023/03/23 04:25:02;;;;;;;2.95;1.40;;;;;;;12.00;66.30;96487.06;5050041;28;20106;-61
2023/03/23 04:27:28;;;;;;;5.72;1.38;;;;;;;11.91;65.99;96478.69;5054264;28;20472;-60
2023/03/23 04:29:58;;;;;;;2.38;1.17;;;;;;;11.92;66.60;96474.09;5050489;28;20040;-61
2023/03/23 04:32:42;;;;;;;2.47;1.38;;;;;;;11.89;66.83;96475.47;5072027;28;20047;-60
2023/03/23 04:35:12;;;;;;;2.72;1.30;;;;;;;11.96;66.09;96478.69;5050333;28;20044;-61
2023/03/23 04:37:43;;;;;;;3.22;1.10;;;;;;;11.86;66.46;96484.16;5049083;28;20130;-61
2023/03/23 04:40:12;;;;;;;3.63;1.35;;;;;;;11.82;66.85;96483.09;5060125;28;20159;-61
2023/03/23 04:42:45;;;;;;;3.08;1.35;;;;;;;11.79;66.89;96491.84;5048171;28;20131;-61
2023/03/23 04:45:26;;;;;;;3.35;1.40;;;;;;;11.94;66.03;96490.91;5070229;28;20079;-61
2023/03/23 04:47:52;;;;;;;2.70;1.20;;;;;;;11.97;65.97;96499.28;5053439;28;20029;-61
2023/03/23 04:50:27;;;;;;;3.83;1.50;;;;;;;11.96;66.44;96488.72;5055452;28;20138;-61
2023/03/23 04:52:53;;;;;;;2.92;1.20;;;;;;;11.84;67.25;96491.78;5054521;28;20040;-60
2023/03/23 04:55:20;;;;;;;;;;;;;;;11.72;67.79;96489.41;5063234;28;20233;-61
2023/03/23 04:57:52;;;;;;;2.97;1.50;;;;;;;11.64;67.97;96490.03;5055159;28;19919;-62
2023/03/23 05:00:35;;;;;;;3.88;1.40;;;;;;;11.67;67.54;96489.44;5054504;28;20314;-61
2023/03/23 05:03:03;;;;;;;4.03;1.63;;;;;;;11.62;67.86;96490.31;5045803;28;20055;-60
2023/03/23 05:05:30;;;;;;;4.72;1.33;;;;;;;11.56;68.28;96484.09;5058044;28;20047;-60
2023/03/23 05:07:58;;;;;;;3.15;1.20;;;;;;;11.57;68.08;96484.88;5052045;28;20044;-59
2023/03/23 05:10:26;;;;;;;2.25;1.20;;;;;;;11.55;68.50;96487.09;5058468;28;20101;-60
2023/03/23 05:12:54;;;;;;;3.65;1.42;;;;;;;11.51;68.71;96486.84;5055655;28;20043;-60
2023/03/23 05:15:20;;;;;;;4.32;1.35;;;;;;;11.48;69.26;96495.53;5055325;28;20580;-61
2023/03/23 05:17:46;;;;;;;3.75;1.45;;;;;;;11.48;68.92;96481.97;5064926;28;20040;-61
2023/03/23 05:20:19;;;;;;;4.05;1.65;;;;;;;11.43;69.65;96487.44;5052836;28;20115;-61
2023/03/23 05:22:49;;;;;;;5.50;1.70;;;;;;;11.46;69.46;96492.28;5056097;28;20068;-61
2023/03/23 05:25:20;;;;;;;3.38;1.25;;;;;;;11.42;69.58;96493.91;5051734;28;20043;-61
2023/03/23 05:27:53;;;;;;;3.30;1.42;;;;;;;11.41;69.75;96495.84;5065572;28;20029;-61
2023/03/23 05:30:40;;;;;;;5.53;1.83;;;;;;;11.35;70.25;96493.44;5059165;28;20078;-61
2023/03/23 05:33:06;;;;;;;3.55;1.70;;;;;;;11.37;70.10;96489.34;5053625;28;20056;-61
2023/03/23 05:35:47;;;;;;;4.50;1.30;;;;;;;11.41;70.02;96489.59;5052177;28;20044;-61
2023/03/23 05:38:14;;;;;;;3.17;1.25;;;;;;;11.44;70.41;96489.88;5053417;28;20438;-61
2023/03/23 05:40:43;;;;;;;4.28;1.38;;;;;;;11.45;70.10;96487.94;5053614;28;20110;-59
2023/03/23 05:43:15;;;;;;;3.17;1.38;;;;;;;11.53;70.20;96492.78;5058681;28;20418;-61
2023/03/23 05:45:49;;;;;;;4.95;1.88;;;;;;;11.52;70.28;96487.63;5058314;28;20104;-61
2023/03/23 05:48:15;;;;;;;4.55;1.92;;;;;;;11.48;70.22;96497.41;5051613;28;20045;-61
2023/03/23 05:50:40;;;;;;;5.55;1.50;;;;;;;11.38;71.00;96492.84;5057861;28;20054;-60
2023/03/23 05:53:06;;;;;;;6.70;1.95;;;;;;;11.24;72.58;96504.31;5056849;28;20048;-61
2023/03/23 05:55:34;;;;;;;3.88;1.67;;;;;;;11.28;72.21;96501.88;5061012;28;20063;-61
2023/03/23 05:58:09;;;;;;;2.95;1.58;;;;;;;11.23;73.06;96505.41;5054180;28;20064;-61
2023/03/23 06:00:38;;;;;;;4.13;2.08;;;;;;;11.22;73.00;96506.50;5050434;28;20048;-61
2023/03/23 06:03:18;;;;;;;3.67;1.55;;;;;;;11.22;73.50;96511.09;5057179;28;20118;-61
2023/03/23 06:06:00;;;;;;;7.68;2.25;;;;;;;11.29;72.67;96525.16;5049987;28;20036;-61
2023/03/23 06:08:33;;;;;;;4.53;2.05;;;;;;;11.32;73.52;96527.31;5047140;28;20127;-60
2023/03/23 06:10:59;;;;;;;7.22;2.85;;;;;;;11.29;74.49;96527.88;5066433;28;20162;-61
2023/03/23 06:13:25;;;;;;;4.15;1.70;;;;;;;11.13;76.14;96540.69;5052788;28;20097;-61
2023/03/23 06:15:59;;;;;;;6.00;1.85;;;;;;;11.13;75.41;96543.38;5072112;28;20035;-60
2023/03/23 06:18:41;;;;;;;5.00;1.70;;;;;;;11.01;76.23;96544.50;5064281;28;20187;-61
2023/03/23 06:21:32;;;;;;;4.15;1.80;;;;;;;10.94;77.97;96546.66;5066611;28;20269;-61
2023/03/23 06:24:01;;;;;;;4.93;1.53;;;;;;;10.80;80.16;96558.06;5053634;28;20419;-60
2023/03/23 06:26:36;;;;;;;5.28;2.08;;;;;;;10.84;81.65;96560.25;5036054;28;20051;-61
2023/03/23 06:29:11;;;;;;;3.72;1.73;;;;;;;10.85;84.32;96554.56;5033751;28;20064;-61
2023/03/23 06:31:47;;;;;;;5.32;2.10;;;;;;;10.79;85.21;96558.34;5055012;28;20076;-61
2023/03/23 06:34:14;;;;;;;5.20;2.13;;;;;;;10.52;88.30;96560.28;5046387;28;20625;-61
2023/03/23 06:37:06;;;;;;;3.65;1.95;;;;;;;10.53;88.87;96570.03;5052425;28;20057;-61
2023/03/23 06:39:38;;;;;;;4.75;2.40;;;;;;;10.65;90.00;96567.03;5053769;28;20040;-61
2023/03/23 06:42:26;;;;;;;6.00;2.20;;;;;;;10.59;91.80;96562.72;5061884;28;20132;-61
2023/03/23 06:45:10;;;;;;;7.68;2.25;;;;;;;10.78;89.63;96562.16;5054682;28;20051;-61
2023/03/23 06:47:37;;;;;;;4.90;1.80;;;;;;;10.96;88.96;96562.66;5052630;28;20046;-61
2023/03/23 06:50:03;;;;;;;3.83;1.75;;;;;;;11.24;83.40;96566.63;5074300;28;20131;-60
2023/03/23 06:52:30;;;;;;;3.20;1.55;;;;;;;11.35;83.78;96566.59;5051018;28;20036;-61
2023/03/23 06:54:55;;;;;;;5.22;1.92;;;;;;;11.40;86.17;96564.69;5027386;28;20526;-61
2023/03/23 06:57:21;;;;;;;4.82;1.88;;;;;;;11.41;84.61;96563.59;5020071;28;20040;-62
2023/03/23 06:59:49;;;;;;;6.45;1.92;;;;;;;11.46;84.63;96579.00;5051467;28;20036;-61
2023/03/23 07:02:15;;;;;;;4.35;2.10;;;;;;;11.72;80.51;96578.91;5069862;28;20043;-61
2023/03/23 07:04:43;;;;;;;4.85;2.00;;;;;;;11.89;78.56;96586.69;5076299;28;20040;-61
2023/03/23 07:07:18;;;;;;;3.83;2.30;;;;;;;11.98;77.97;96589.63;5043929;28;20526;-61
2023/03/23 07:09:51;;;;;;;3.58;2.03;;;;;;;12.03;76.66;96605.88;5055951;28;20049;-60
2023/03/23 07:12:22;;;;;;;3.15;1.90;;;;;;;11.96;76.51;96599.94;5054406;28;20051;-61
2023/03/23 07:14:49;;;;;;;3.90;1.70;;;;;;;11.95;76.36;96607.25;5055041;28;20027;-61
2023/03/23 07:17:15;;;;;;;2.85;1.42;;;;;;;12.01;74.54;96613.47;5053975;28;20550;-61
2023/03/23 07:19:57;;;;;;;4.32;1.60;;;;;;;12.15;73.93;96612.88;5055851;28;20075;-59
2023/03/23 07:22:22;;;;;;;2.67;1.30;;;;;;;12.28;73.81;96616.88;5058085;28;20072;-61
2023/03/23 07:24:56;;;;;;;3.72;1.45;;;;;;;12.26;74.46;96621.75;5064547;28;20044;-61
2023/03/23 07:27:27;;;;;;;4.57;1.60;;;;;;;12.06;74.93;96627.03;5059548;28;20047;-61
2023/03/23 07:29:59;;;;;;;3.40;1.50;;;;;;;12.03;76.36;96638.44;5050483;28;20616;-59
2023/03/23 07:32:25;;;;;;;2.53;1.25;;;;;;;11.99;76.58;96636.56;5055808;28;20550;-60
2023/03/23 07:34:51;;;;;;;2.95;1.40;;;;;;;11.99;76.54;96637.38;5052143;28;20036;-60
2023/03/23 07:37:48;;;;;;;3.90;1.70;;;;;;;12.02;76.85;96633.28;5056102;28;20105;-61
2023/03/23 07:40:15;;;;;;;3.03;1.50;;;;;;;12.10;77.18;96632.72;5056269;28;20139;-56
2023/03/23 07:42:51;;;;;;;2.53;1.40;;;;;;;12.21;77.48;96634.28;5071364;28;20064;-61
2023/03/23 07:45:25;;;;;;;2.00;1.10;;;;;;;12.40;76.18;96628.19;5058474;28;20582;-61
2023/03/23 07:47:51;;;;;;;5.35;1.70;;;;;;;12.36;76.92;96624.44;5055265;28;20115;-59
2023/03/23 07:50:17;;;;;;;4.47;1.50;;;;;;;12.54;76.72;96622.94;5060214;28;20093;-59
2023/03/23 07:52:44;;;;;;;3.63;1.60;;;;;;;12.69;75.86;96623.91;5054582;28;20044;-60
2023/03/23 07:55:17;;;;;;;3.50;1.60;;;;;;;12.83;76.73;96632.22;5057371;28;20044;-59
2023/03/23 07:57:57;;;;;;;3.97;1.85;;;;;;;13.02;75.02;96635.03;5056772;28;20040;-50
2023/03/23 08:00:23;;;;;;;5.00;1.67;;;;;;;13.08;74.18;96643.97;5055174;28;20067;-52
2023/03/23 08:02:56;;;;;;;3.45;1.33;;;;;;;13.03;73.28;96633.94;5069136;28;20044;-49
2023/03/23 08:05:33;;;;;;;4.30;1.50;;;;;;;12.90;73.96;96638.13;5029633;28;20440;-56
2023/03/23 08:08:23;;;;;;;2.90;1.30;;;;;;;12.86;75.01;96637.06;5075590;28;20699;-55
2023/03/23 08:11:00;;;;;;;3.53;1.65;;;;;;;13.00;75.44;96638.03;5072767;28;20056;-55
2023/03/23 08:13:46;;;;;;;3.80;1.58;;;;;;;13.07;74.70;96639.59;5073140;28;20140;-55
2023/03/23 08:16:33;;;;;;;4.70;1.40;;;;;;;13.04;73.65;96635.56;5066768;28;20032;-54
2023/03/23 08:19:18;;;;;;;3.15;1.58;;;;;;;13.00;74.69;96656.25;5074543;28;20415;-53
2023/03/23 08:21:58;;;;;;;4.05;1.35;;;;;;;12.90;74.58;96645.47;5059831;28;20031;-52
2023/03/23 08:24:42;;;;;;;3.13;1.48;;;;;;;12.98;75.27;96647.59;5059254;28;20133;-60
2023/03/23 08:27:16;;;;;;;2.70;1.30;;;;;;;13.01;75.14;96647.00;5056672;28;20036;-60
2023/03/23 08:30:05;;;;;;;5.40;3.08;;;;;;;13.07;74.55;96654.00;5047326;28;20245;-59
2023/03/23 08:33:00;;;;;;;6.25;1.75;;;;;;;12.97;75.04;96651.41;5047830;28;20052;-59
2023/03/23 08:35:59;;;;;;;3.20;1.30;;;;;;;12.85;76.69;96657.19;5063280;28;20043;-59
2023/03/23 08:38:45;;;;;;;2.42;1.40;;;;;;;12.87;75.96;96658.53;5042828;28;20086;-59
2023/03/23 08:41:35;;;;;;;3.30;1.75;;;;;;;12.95;75.97;96664.44;5072865;28;20036;-59
2023/03/23 08:44:24;;;;;;;2.58;1.42;;;;;;;13.00;76.21;96667.13;5035438;28;20114;-60
2023/03/23 08:47:06;;;;;;;2.90;1.40;;;;;;;13.10;75.35;96675.19;5049410;28;20559;-61
2023/03/23 08:49:52;;;;;;;4.60;1.48;;;;;;;13.03;75.38;96674.69;5063434;28;20757;-59
2023/03/23 08:52:46;;;;;;;3.47;1.40;;;;;;;12.90;75.85;96661.78;5063026;28;20408;-59
2023/03/23 08:55:30;;;;;;;3.50;1.35;;;;;;;12.87;75.61;96672.09;5063488;28;20402;-59
2023/03/23 08:58:24;;;;;;;3.22;1.40;;;;;;;12.99;75.20;96668.22;5058858;28;20036;-59
2023/03/23 09:01:09;;;;;;;3.35;1.52;;;;;;;13.10;74.33;96664.31;5075339;28;20082;-59
2023/03/23 09:03:43;;;;;;;3.28;1.70;;;;;;;13.26;73.27;96667.69;5071894;28;20097;-59
2023/03/23 09:06:22;;;;;;;3.13;1.40;;;;;;;13.34;74.34;96671.69;5052815;28;20137;-59
2023/03/23 09:08:48;;;;;;;3.30;1.35;;;;;;;13.31;74.43;96676.91;5069564;28;20582;-59
2023/03/23 09:11:13;;;;;;;2.30;1.10;;;;;;;13.44;73.41;96675.41;5066519;28;20063;-60
2023/03/23 09:13:40;;;;;;;3.42;1.30;;;;;;;13.56;73.17;96683.22;5070863;28;20633;-61
2023/03/23 09:16:06;;;;;;;2.60;1.40;;;;;;;13.85;73.07;96683.16;5070653;28;20629;-61
2023/03/23 09:18:33;;;;;;;3.58;1.27;;;;;;;13.98;71.66;96687.09;5075604;28;20045;-61
2023/03/23 09:20:59;;;;;;;3.08;1.45;;;;;;;14.02;72.13;96704.47;5062114;28;20045;-61
2023/03/23 09:23:26;;;;;;;2.65;1.30;;;;;;;13.92;71.93;96701.84;5078618;28;20411;-60
2023/03/23 09:25:52;;;;;;;3.92;1.40;;;;;;;14.07;70.37;96719.09;5074769;28;20040;-61
2023/03/23 09:28:19;;;;;;;3.08;1.20;;;;;;;14.01;70.51;96726.53;5073457;28;20067;-61
2023/03/23 09:30:45;;;;;;;5.13;2.28;;;;;;;14.02;70.41;96707.19;5067204;28;20035;-61
2023/03/23 09:33:11;;;;;;;3.00;1.33;;;;;;;13.72;71.82;96711.06;5073068;28;20047;-58
2023/03/23 09:35:38;;;;;;;3.38;1.60;;;;;;;13.59;71.84;96713.34;5068589;28;20036;-60
2023/03/23 09:38:05;;;;;;;2.38;1.30;;;;;;;13.85;71.91;96715.81;5067062;28;20048;-58
2023/03/23 09:40:48;;;;;;;3.83;1.65;;;;;;;13.82;72.21;96710.94;5070288;28;20093;-59
2023/03/23 09:43:28;;;;;;;3.70;1.33;;;;;;;13.95;72.57;96720.31;5071314;28;20040;-58
2023/03/23 09:46:00;;;;;;;3.30;1.85;;;;;;;14.23;72.33;96715.06;5070387;28;20048;-57
2023/03/23 09:48:33;;;;;;;3.25;1.40;;;;;;;14.17;72.68;96729.84;5045696;28;21238;-60
2023/03/23 09:51:08;;;;;;;3.13;1.40;;;;;;;13.83;72.40;96731.63;5059886;28;21899;-59
2023/03/23 09:53:41;;;;;;;2.47;1.38;;;;;;;13.82;75.53;96745.50;5070098;28;20044;-58
2023/03/23 09:56:13;;;;;;;3.13;1.30;;;;;;;13.67;75.76;96743.75;5074906;28;20046;-59
2023/03/23 09:58:53;;;;;;;2.88;1.30;;;;;;;13.65;76.45;96727.72;5074022;28;20054;-59
2023/03/23 10:01:34;;;;;;;2.13;1.00;;;;;;;13.96;76.77;96740.97;5071930;28;20043;-59
2023/03/23 10:04:38;;;;;;;2.72;1.50;;;;;;;13.77;77.69;96727.31;5071440;28;20040;-59
2023/03/23 10:07:24;;;;;;;4.57;1.15;;;;;;;13.52;78.61;96731.91;5072578;28;20064;-58
2023/03/23 10:09:56;;;;;;;2.17;1.25;;;;;;;13.67;77.36;96730.16;5074028;28;20047;-58
2023/03/23 10:12:27;;;;;;;8.10;1.67;;;;;;;13.70;78.39;96716.78;5076026;28;20035;-59
2023/03/23 10:15:09;;;;;;;4.47;1.10;;;;;;;13.64;78.87;96726.09;5071780;28;20040;-59
2023/03/23 10:17:47;;;;;;;2.13;1.10;;;;;;;13.80;77.56;96729.47;5073753;28;20277;-56
2023/03/23 10:20:14;;;;;;;3.05;1.20;;;;;;;13.85;76.98;96725.84;5050535;28;20067;-60
2023/03/23 10:22:54;;;;;;;1.55;0.80;;;;;;;13.79;78.20;96736.00;5071932;28;20676;-59
2023/03/23 10:25:26;;;;;;;6.50;1.10;;;;;;;13.93;76.22;96733.38;5070426;28;20056;-59
2023/03/23 10:28:04;;;;;;;4.72;1.30;;;;;;;14.23;77.56;96730.59;5069649;28;20044;-58
2023/03/23 10:30:53;;;;;;;2.65;1.00;;;;;;;14.49;74.05;96743.91;5070627;28;20042;-60
2023/03/23 10:33:25;;;;;;;3.03;1.20;;;;;;;14.38;74.76;96738.56;5078646;28;20067;-59
2023/03/23 10:35:55;;;;;;;2.78;1.42;;;;;;;14.18;73.87;96754.06;5070325;28;20040;-60
2023/03/23 10:38:26;;;;;;;3.53;0.93;;;;;;;14.31;75.08;96746.31;5065626;28;20464;-59
2023/03/23 10:41:19;;;;;;;1.88;1.10;;;;;;;14.12;75.03;96732.66;5075873;28;20195;-60
2023/03/23 10:43:49;;;;;;;4.18;0.98;;;;;;;14.17;75.77;96738.03;5066661;28;20053;-58
2023/03/23 10:46:39;;;;;;;1.63;1.00;;;;;;;14.50;73.52;96745.50;5069247;28;20420;-60
2023/03/23 10:49:12;;;;;;;4.55;1.45;;;;;;;14.53;74.55;96737.53;5065673;28;20052;-60
2023/03/23 10:51:43;;;;;;;1.98;1.10;;;;;;;14.40;75.26;96727.38;5074713;28;20127;-60
2023/03/23 10:54:09;;;;;;;2.42;1.17;;;;;;;14.23;75.41;96734.13;5067819;28;20043;-60
2023/03/23 10:56:42;;;;;;;2.38;1.20;;;;;;;14.17;75.19;96736.13;5069682;28;20044;-59
2023/03/23 10:59:26;;;;;;;2.67;1.20;;;;;;;13.89;76.25;96737.78;5073113;28;20042;-60
2023/03/23 11:01:54;;;;;;;3.33;1.17;;;;;;;13.64;76.32;96737.78;5070008;28;20051;-59
2023/03/23 11:04:21;;;;;;;1.88;0.93;;;;;;;13.88;77.48;96731.56;5059925;28;20040;-60
2023/03/23 11:06:52;;;;;;;3.10;1.10;;;;;;;13.67;76.96;96728.22;5073649;28;20037;-60
2023/03/23 11:09:21;;;;;;;2.50;1.20;;;;;;;13.50;78.23;96734.13;5057131;28;20047;-57
2023/03/23 11:11:52;;;;;;;3.75;1.20;;;;;;;13.56;77.77;96730.25;5058139;28;20068;-58
2023/03/23 11:14:20;;;;;;;;;;;;;;;13.62;77.18;96733.72;5073592;28;20033;-57
2023/03/23 11:16:52;;;;;;;1.45;0.93;;;;;;;13.88;76.72;96719.84;5065624;28;19924;-60
2023/03/23 11:19:26;;;;;;;3.58;1.35;;;;;;;14.14;76.09;96733.16;5060737;28;20039;-59
2023/03/23 11:21:54;;;;;;;3.08;1.25;;;;;;;14.19;75.91;96738.53;5067018;28;20047;-60
2023/03/23 11:24:26;;;;;;;2.00;1.10;;;;;;;14.25;75.29;96731.13;5055906;28;20071;-60
2023/03/23 11:26:53;;;;;;;4.03;1.20;;;;;;;14.40;75.09;96730.94;5072802;28;20038;-59
2023/03/23 11:29:24;;;;;;;3.53;1.15;;;;;;;14.59;74.48;96724.66;5074347;28;20036;-57
2023/03/23 11:32:08;;;;;;;2.60;1.20;;;;;;;14.66;74.58;96724.31;5071908;28;20043;-59
2023/03/23 11:34:41;;;;;;;2.80;1.20;;;;;;;14.69;72.00;96718.28;5074997;28;20047;-59
2023/03/23 11:37:32;;;;;;;2.25;1.08;;;;;;;14.69;72.83;96726.44;5072609;28;20036;-59
2023/03/23 11:40:07;;;;;;;3.67;1.57;;;;;;;14.94;73.16;96729.94;5071916;28;20091;-60
2023/03/23 11:42:56;;;;;;;4.15;1.60;;;;;;;15.26;72.64;96722.06;5065769;28;20048;-59
2023/03/23 11:45:45;;;;;;;4.05;1.67;;;;;;;15.09;71.07;96734.34;5069465;28;20494;-60
2023/03/23 11:48:26;;;;;;;2.78;1.33;;;;;;;15.11;70.59;96725.84;5074757;28;20044;-60
2023/03/23 11:51:22;;;;;;;3.67;1.42;;;;;;;14.94;70.93;96732.66;5065038;28;20036;-61
2023/03/23 11:54:15;;;;;;;4.43;1.58;;;;;;;15.18;71.97;96729.00;5041426;28;20053;-59
2023/03/23 11:56:43;;;;;;;2.90;1.60;;;;;;;15.27;70.87;96740.03;5077134;28;20044;-59
2023/03/23 11:59:27;;;;;;;2.40;1.40;;;;;;;15.00;71.23;96738.84;5074739;28;20036;-60
2023/03/23 12:02:46;;;;;;;4.57;1.38;;;;;;;15.05;70.81;96738.75;5071429;28;20040;-60
2023/03/23 12:05:17;;;;;;;3.15;1.40;;;;;;;15.11;70.82;96737.56;4970056;28;20068;-60